createdAt,value
2018-11-03T00:00:09.468Z,10.22
2018-11-03T00:01:09.210Z,10.22
2018-11-03T00:02:09.464Z,10.17
2018-11-03T00:03:09.446Z,10.2
2018-11-03T00:04:09.436Z,10.2
2018-11-03T00:05:09.415Z,10.22
2018-11-03T00:06:09.606Z,10.11
2018-11-03T00:07:09.513Z,10.07
2018-11-03T00:08:09.429Z,10.08
2018-11-03T00:09:09.372Z,10.05
2018-11-03T00:10:09.117Z,10.15
2018-11-03T00:11:09.079Z,10.05
2018-11-03T00:12:09.371Z,10.09
2018-11-03T00:13:09.323Z,10.02
2018-11-03T00:14:09.376Z,10.07
2018-11-03T00:15:09.359Z,10.01
2018-11-03T00:16:09.393Z,10.05
2018-11-03T00:17:09.295Z,10.08
2018-11-03T00:18:09.291Z,10.12
2018-11-03T00:19:09.299Z,10.11
2018-11-03T00:20:09.281Z,10.15
2018-11-03T00:21:09.273Z,10.12
2018-11-03T00:22:09.241Z,10.07
2018-11-03T00:23:09.250Z,9.97
2018-11-03T00:24:08.976Z,10.02
2018-11-03T00:25:08.955Z,10.01
2018-11-03T00:26:08.959Z,10.01
2018-11-03T00:27:09.196Z,9.91
2018-11-03T00:28:08.936Z,10.02
2018-11-03T00:29:09.157Z,9.94
2018-11-03T00:30:08.972Z,9.94
2018-11-03T00:31:08.924Z,9.91
2018-11-03T00:32:08.895Z,10.01
2018-11-03T00:33:09.126Z,9.96
2018-11-03T00:34:09.119Z,9.87
2018-11-03T00:35:08.851Z,9.9
2018-11-03T00:36:08.854Z,9.94
2018-11-03T00:37:09.109Z,9.97
2018-11-03T00:38:08.822Z,9.9
2018-11-03T00:39:08.812Z,9.91
2018-11-03T00:40:09.053Z,9.86
2018-11-03T00:41:09.068Z,9.89
2018-11-03T00:42:09.034Z,9.83
2018-11-03T00:43:09.047Z,9.84
2018-11-03T00:44:09.012Z,9.93
2018-11-03T00:45:08.780Z,9.83
2018-11-03T00:46:09.347Z,9.83
2018-11-03T00:47:08.478Z,9.86
2018-11-03T00:48:08.971Z,9.84
2018-11-03T00:49:08.466Z,9.84
2018-11-03T00:50:08.694Z,9.83
2018-11-03T00:51:08.963Z,9.79
2018-11-03T00:52:08.733Z,9.89
2018-11-03T00:53:08.718Z,9.86
2018-11-03T00:54:08.657Z,9.84
2018-11-03T00:55:08.646Z,9.87
2018-11-03T00:56:09.238Z,9.87
2018-11-03T00:57:08.938Z,9.81
2018-11-03T00:58:08.617Z,9.86
2018-11-03T00:59:08.885Z,9.78
2018-11-03T01:00:08.858Z,9.78
2018-11-03T01:01:08.621Z,9.84
2018-11-03T01:02:08.311Z,9.79
2018-11-03T01:03:08.840Z,9.78
2018-11-03T01:04:08.805Z,9.76
2018-11-03T01:05:08.565Z,9.71
2018-11-03T01:06:09.108Z,9.71
2018-11-03T01:07:08.799Z,9.71
2018-11-03T01:08:08.517Z,9.71
2018-11-03T01:09:08.509Z,9.75
2018-11-03T01:10:08.511Z,9.64
2018-11-03T01:11:08.756Z,9.65
2018-11-03T01:12:08.756Z,9.72
2018-11-03T01:13:08.717Z,9.6
2018-11-03T01:14:08.778Z,9.6
2018-11-03T01:15:08.822Z,9.68
2018-11-03T01:16:09.033Z,9.56
2018-11-03T01:17:08.718Z,9.6
2018-11-03T01:18:08.406Z,9.57
2018-11-03T01:19:08.682Z,9.61
2018-11-03T01:20:08.642Z,9.57
2018-11-03T01:21:08.665Z,9.57
2018-11-03T01:22:08.125Z,9.54
2018-11-03T01:23:08.366Z,9.51
2018-11-03T01:24:08.602Z,9.51
2018-11-03T01:25:08.340Z,9.54
2018-11-03T01:26:08.871Z,9.5
2018-11-03T01:27:08.587Z,9.47
2018-11-03T01:28:08.328Z,9.47
2018-11-03T01:29:08.554Z,9.48
2018-11-03T01:30:08.305Z,9.51
2018-11-03T01:31:08.576Z,9.5
2018-11-03T01:32:08.288Z,9.48
2018-11-03T01:33:08.511Z,9.48
2018-11-03T01:34:08.543Z,9.5
2018-11-03T01:35:07.983Z,9.47
2018-11-03T01:36:08.510Z,9.48
2018-11-03T01:37:08.465Z,9.46
2018-11-03T01:38:08.461Z,9.53
2018-11-03T01:39:08.473Z,9.47
2018-11-03T01:40:08.210Z,9.48
2018-11-03T01:41:08.168Z,9.51
2018-11-03T01:42:08.444Z,9.39
2018-11-03T01:43:08.429Z,9.4
2018-11-03T01:44:08.424Z,9.5
2018-11-03T01:45:08.398Z,9.43
2018-11-03T01:46:08.140Z,9.47
2018-11-03T01:47:08.106Z,9.46
2018-11-03T01:48:08.377Z,9.46
2018-11-03T01:49:08.349Z,9.36
2018-11-03T01:50:08.365Z,9.35
2018-11-03T01:51:08.341Z,9.36
2018-11-03T01:52:08.115Z,9.36
2018-11-03T01:53:08.044Z,9.36
2018-11-03T01:54:08.307Z,9.42
2018-11-03T01:55:08.331Z,9.26
2018-11-03T01:56:08.610Z,9.39
2018-11-03T01:57:08.033Z,9.36
2018-11-03T01:58:08.263Z,9.28
2018-11-03T01:59:08.256Z,9.38
2018-11-03T02:00:07.719Z,9.35
2018-11-03T02:01:08.251Z,9.32
2018-11-03T02:02:08.210Z,9.29
2018-11-03T02:03:08.238Z,9.32
2018-11-03T02:04:08.195Z,9.24
2018-11-03T02:05:07.947Z,9.2
2018-11-03T02:06:08.190Z,9.18
2018-11-03T02:07:08.167Z,9.17
2018-11-03T02:08:08.179Z,9.18
2018-11-03T02:09:08.133Z,9.18
2018-11-03T02:10:07.875Z,9.21
2018-11-03T02:11:07.872Z,9.14
2018-11-03T02:12:08.141Z,9.18
2018-11-03T02:13:08.126Z,9.18
2018-11-03T02:14:08.092Z,9.18
2018-11-03T02:15:08.133Z,9.17
2018-11-03T02:16:08.268Z,9.11
2018-11-03T02:17:08.082Z,9.13
2018-11-03T02:18:08.046Z,9.17
2018-11-03T02:19:08.065Z,9.24
2018-11-03T02:20:07.772Z,9.15
2018-11-03T02:21:08.110Z,9.2
2018-11-03T02:22:08.000Z,9.28
2018-11-03T02:23:08.016Z,9.15
2018-11-03T02:24:08.014Z,9.23
2018-11-03T02:25:07.742Z,9.21
2018-11-03T02:26:07.491Z,9.2
2018-11-03T02:27:08.253Z,9.26
2018-11-03T02:28:07.944Z,9.18
2018-11-03T02:29:07.948Z,9.02
2018-11-03T02:30:07.684Z,9.26
2018-11-03T02:31:07.675Z,9.14
2018-11-03T02:32:07.635Z,9.11
2018-11-03T02:33:07.692Z,9.15
2018-11-03T02:34:08.008Z,9.14
2018-11-03T02:35:07.901Z,9.18
2018-11-03T02:36:07.849Z,9.01
2018-11-03T02:37:07.813Z,9.08
2018-11-03T02:38:07.931Z,9.01
2018-11-03T02:39:07.320Z,9.05
2018-11-03T02:40:07.292Z,9.01
2018-11-03T02:41:07.829Z,9.05
2018-11-03T02:42:07.812Z,9.04
2018-11-03T02:43:07.548Z,9.04
2018-11-03T02:44:07.792Z,8.95
2018-11-03T02:45:07.240Z,9.05
2018-11-03T02:46:07.518Z,8.96
2018-11-03T02:47:07.767Z,9.02
2018-11-03T02:48:07.764Z,9.02
2018-11-03T02:49:07.454Z,8.99
2018-11-03T02:50:07.473Z,8.94
2018-11-03T02:51:07.437Z,9.02
2018-11-03T02:52:07.459Z,9.15
2018-11-03T02:53:07.678Z,9.11
2018-11-03T02:54:07.434Z,9.02
2018-11-03T02:55:07.407Z,9.15
2018-11-03T02:56:07.407Z,9.18
2018-11-03T02:57:07.924Z,9.18
2018-11-03T02:58:07.407Z,9.13
2018-11-03T02:59:07.367Z,9.08
2018-11-03T03:00:07.345Z,9.11
2018-11-03T03:01:07.326Z,9.15
2018-11-03T03:02:07.619Z,9.17
2018-11-03T03:03:07.065Z,9.26
2018-11-03T03:04:07.918Z,9.23
2018-11-03T03:05:07.590Z,9.18
2018-11-03T03:06:07.303Z,9.15
2018-11-03T03:07:07.823Z,9.21
2018-11-03T03:08:07.540Z,9.21
2018-11-03T03:09:07.506Z,9.17
2018-11-03T03:10:07.260Z,9.15
2018-11-03T03:11:07.250Z,9.2
2018-11-03T03:12:07.225Z,9.32
2018-11-03T03:13:07.492Z,9.33
2018-11-03T03:14:07.220Z,9.35
2018-11-03T03:15:07.459Z,9.33
2018-11-03T03:16:07.183Z,9.39
2018-11-03T03:17:07.473Z,9.32
2018-11-03T03:18:07.174Z,9.33
2018-11-03T03:19:07.154Z,9.29
2018-11-03T03:20:07.153Z,9.38
2018-11-03T03:21:06.858Z,9.35
2018-11-03T03:22:07.387Z,9.42
2018-11-03T03:23:07.109Z,9.38
2018-11-03T03:24:07.354Z,9.38
2018-11-03T03:25:06.840Z,9.42
2018-11-03T03:26:07.442Z,9.47
2018-11-03T03:27:07.588Z,9.4
2018-11-03T03:28:07.305Z,9.47
2018-11-03T03:29:07.427Z,9.43
2018-11-03T03:30:07.073Z,9.54
2018-11-03T03:31:07.352Z,9.51
2018-11-03T03:32:06.744Z,9.56
2018-11-03T03:33:07.249Z,9.5
2018-11-03T03:34:07.278Z,9.48
2018-11-03T03:35:06.982Z,9.56
2018-11-03T03:36:07.487Z,9.58
2018-11-03T03:37:06.958Z,9.58
2018-11-03T03:38:06.701Z,9.56
2018-11-03T03:39:06.670Z,9.64
2018-11-03T03:40:06.955Z,9.58
2018-11-03T03:41:07.169Z,9.5
2018-11-03T03:42:06.661Z,9.47
2018-11-03T03:43:06.898Z,9.5
2018-11-03T03:44:06.910Z,9.48
2018-11-03T03:45:06.609Z,9.53
2018-11-03T03:46:06.862Z,9.48
2018-11-03T03:47:06.859Z,9.5
2018-11-03T03:48:06.877Z,9.5
2018-11-03T03:49:06.836Z,9.46
2018-11-03T03:50:07.108Z,9.53
2018-11-03T03:51:06.866Z,9.51
2018-11-03T03:52:06.826Z,9.54
2018-11-03T03:53:07.040Z,9.51
2018-11-03T03:54:06.798Z,9.5
2018-11-03T03:55:06.505Z,9.56
2018-11-03T03:56:07.311Z,9.56
2018-11-03T03:57:06.740Z,9.48
2018-11-03T03:58:06.781Z,9.53
2018-11-03T03:59:07.015Z,9.56
2018-11-03T04:00:06.750Z,9.58
2018-11-03T04:01:06.990Z,9.56
2018-11-03T04:02:06.693Z,9.64
2018-11-03T04:03:06.689Z,9.56
2018-11-03T04:04:06.695Z,9.6
2018-11-03T04:05:06.991Z,9.57
2018-11-03T04:06:07.470Z,9.65
2018-11-03T04:07:06.668Z,9.58
2018-11-03T04:08:06.933Z,9.56
2018-11-03T04:09:06.645Z,9.53
2018-11-03T04:10:06.877Z,9.64
2018-11-03T04:11:06.626Z,9.56
2018-11-03T04:12:06.589Z,9.6
2018-11-03T04:13:06.602Z,9.57
2018-11-03T04:14:06.584Z,9.58
2018-11-03T04:15:06.583Z,9.64
2018-11-03T04:16:06.817Z,9.56
2018-11-03T04:17:06.829Z,9.58
2018-11-03T04:18:06.529Z,9.56
2018-11-03T04:19:06.820Z,9.56
2018-11-03T04:20:06.534Z,9.58
2018-11-03T04:21:06.789Z,9.48
2018-11-03T04:22:06.782Z,9.51
2018-11-03T04:23:06.758Z,9.5
2018-11-03T04:24:06.470Z,9.53
2018-11-03T04:25:06.570Z,9.47
2018-11-03T04:26:06.976Z,9.46
2018-11-03T04:27:06.724Z,9.5
2018-11-03T04:28:06.420Z,9.43
2018-11-03T04:29:06.707Z,9.43
2018-11-03T04:30:06.405Z,9.4
2018-11-03T04:31:06.407Z,9.4
2018-11-03T04:32:06.387Z,9.5
2018-11-03T04:33:06.392Z,9.42
2018-11-03T04:34:06.380Z,9.33
2018-11-03T04:35:06.668Z,9.42
2018-11-03T04:36:06.647Z,9.46
2018-11-03T04:37:06.595Z,9.4
2018-11-03T04:38:06.343Z,9.35
2018-11-03T04:39:06.322Z,9.43
2018-11-03T04:40:06.299Z,9.42
2018-11-03T04:41:06.579Z,9.4
2018-11-03T04:42:06.286Z,9.47
2018-11-03T04:43:06.561Z,9.46
2018-11-03T04:44:06.256Z,9.43
2018-11-03T04:45:06.564Z,9.42
2018-11-03T04:46:06.234Z,9.4
2018-11-03T04:47:05.978Z,9.47
2018-11-03T04:48:06.469Z,9.38
2018-11-03T04:49:06.225Z,9.46
2018-11-03T04:50:06.485Z,9.46
2018-11-03T04:51:06.474Z,9.39
2018-11-03T04:52:06.175Z,9.47
2018-11-03T04:53:06.492Z,9.47
2018-11-03T04:54:06.173Z,9.5
2018-11-03T04:55:07.131Z,9.46
2018-11-03T04:56:06.159Z,9.48
2018-11-03T04:57:06.381Z,9.46
2018-11-03T04:58:06.130Z,9.5
2018-11-03T04:59:06.357Z,9.39
2018-11-03T05:00:06.386Z,9.47
2018-11-03T05:01:06.339Z,9.46
2018-11-03T05:02:06.094Z,9.48
2018-11-03T05:03:06.333Z,9.54
2018-11-03T05:04:06.334Z,9.48
2018-11-03T05:05:06.231Z,9.53
2018-11-03T05:06:06.307Z,9.48
2018-11-03T05:07:06.286Z,9.4
2018-11-03T05:08:06.017Z,9.47
2018-11-03T05:09:06.253Z,9.48
2018-11-03T05:10:06.588Z,9.42
2018-11-03T05:11:05.993Z,9.47
2018-11-03T05:12:06.257Z,9.42
2018-11-03T05:13:06.201Z,9.46
2018-11-03T05:14:06.232Z,9.39
2018-11-03T05:15:06.555Z,9.46
2018-11-03T05:16:06.217Z,9.51
2018-11-03T05:17:06.173Z,9.43
2018-11-03T05:18:05.927Z,9.51
2018-11-03T05:19:05.903Z,9.48
2018-11-03T05:20:06.174Z,9.5
2018-11-03T05:21:06.188Z,9.53
2018-11-03T05:22:05.864Z,9.46
2018-11-03T05:23:06.135Z,9.46
2018-11-03T05:24:05.866Z,9.48
2018-11-03T05:25:06.057Z,9.48
2018-11-03T05:26:06.088Z,9.54
2018-11-03T05:27:05.822Z,9.51
2018-11-03T05:28:06.062Z,9.47
2018-11-03T05:29:06.136Z,9.47
2018-11-03T05:30:05.527Z,9.48
2018-11-03T05:31:06.237Z,9.51
2018-11-03T05:32:05.778Z,9.48
2018-11-03T05:33:06.008Z,9.51
2018-11-03T05:34:06.068Z,9.5
2018-11-03T05:35:05.473Z,9.42
2018-11-03T05:36:05.739Z,9.48
2018-11-03T05:37:05.965Z,9.47
2018-11-03T05:38:05.701Z,9.54
2018-11-03T05:39:05.789Z,9.47
2018-11-03T05:40:05.707Z,9.47
2018-11-03T05:41:05.953Z,9.5
2018-11-03T05:42:05.917Z,9.48
2018-11-03T05:43:05.650Z,9.47
2018-11-03T05:44:05.887Z,9.46
2018-11-03T05:45:06.106Z,9.51
2018-11-03T05:46:06.262Z,9.51
2018-11-03T05:47:05.890Z,9.53
2018-11-03T05:48:05.588Z,9.5
2018-11-03T05:49:05.626Z,9.5
2018-11-03T05:50:05.836Z,9.5
2018-11-03T05:51:05.920Z,9.54
2018-11-03T05:52:05.802Z,9.47
2018-11-03T05:53:05.847Z,9.48
2018-11-03T05:54:05.553Z,9.47
2018-11-03T05:55:05.532Z,9.5
2018-11-03T05:56:06.103Z,9.53
2018-11-03T05:57:05.809Z,9.48
2018-11-03T05:58:05.798Z,9.5
2018-11-03T05:59:06.354Z,9.38
2018-11-03T06:00:05.745Z,9.4
2018-11-03T06:01:05.480Z,9.51
2018-11-03T06:02:05.708Z,9.42
2018-11-03T06:03:05.729Z,9.46
2018-11-03T06:04:05.423Z,9.46
2018-11-03T06:05:05.437Z,9.46
2018-11-03T06:06:05.444Z,9.48
2018-11-03T06:07:05.667Z,9.4
2018-11-03T06:08:05.394Z,9.4
2018-11-03T06:09:05.694Z,9.4
2018-11-03T06:10:05.382Z,9.42
2018-11-03T06:11:05.619Z,9.4
2018-11-03T06:12:05.593Z,9.46
2018-11-03T06:13:05.594Z,9.47
2018-11-03T06:14:05.335Z,9.5
2018-11-03T06:15:05.317Z,9.43
2018-11-03T06:16:05.673Z,9.47
2018-11-03T06:17:05.315Z,9.43
2018-11-03T06:18:05.300Z,9.42
2018-11-03T06:19:05.281Z,9.36
2018-11-03T06:20:05.323Z,9.39
2018-11-03T06:21:05.502Z,9.4
2018-11-03T06:22:05.518Z,9.48
2018-11-03T06:23:05.893Z,9.46
2018-11-03T06:24:05.474Z,9.35
2018-11-03T06:25:05.235Z,9.46
2018-11-03T06:26:05.914Z,9.4
2018-11-03T06:27:05.456Z,9.39
2018-11-03T06:28:05.797Z,9.46
2018-11-03T06:29:05.427Z,9.43
2018-11-03T06:30:05.171Z,9.39
2018-11-03T06:31:05.428Z,9.42
2018-11-03T06:32:05.418Z,9.4
2018-11-03T06:33:05.377Z,9.4
2018-11-03T06:34:05.134Z,9.48
2018-11-03T06:35:05.300Z,9.51
2018-11-03T06:36:05.968Z,9.56
2018-11-03T06:37:05.103Z,9.57
2018-11-03T06:38:05.332Z,9.58
2018-11-03T06:39:05.478Z,9.58
2018-11-03T06:40:05.064Z,9.65
2018-11-03T06:41:05.333Z,9.64
2018-11-03T06:42:05.332Z,9.65
2018-11-03T06:43:05.289Z,9.64
2018-11-03T06:44:05.271Z,9.68
2018-11-03T06:45:05.249Z,9.65
2018-11-03T06:46:05.736Z,9.75
2018-11-03T06:47:05.052Z,9.65
2018-11-03T06:48:04.708Z,9.71
2018-11-03T06:49:04.980Z,9.78
2018-11-03T06:50:04.953Z,9.84
2018-11-03T06:51:04.972Z,9.87
2018-11-03T06:52:04.970Z,9.84
2018-11-03T06:53:04.943Z,9.9
2018-11-03T06:54:05.163Z,9.89
2018-11-03T06:55:04.915Z,9.91
2018-11-03T06:56:05.726Z,10.04
2018-11-03T06:57:04.902Z,10.05
2018-11-03T06:58:04.623Z,10.07
2018-11-03T06:59:05.133Z,10.14
2018-11-03T07:00:04.843Z,10.27
2018-11-03T07:01:04.835Z,10.18
2018-11-03T07:02:04.847Z,10.18
2018-11-03T07:03:05.126Z,10.22
2018-11-03T07:04:05.106Z,10.29
2018-11-03T07:05:05.245Z,10.29
2018-11-03T07:06:05.448Z,10.36
2018-11-03T07:07:04.515Z,10.25
2018-11-03T07:08:04.788Z,10.34
2018-11-03T07:09:04.753Z,10.42
2018-11-03T07:10:04.516Z,10.41
2018-11-03T07:11:04.746Z,10.41
2018-11-03T07:12:05.037Z,10.41
2018-11-03T07:13:04.473Z,10.53
2018-11-03T07:14:04.737Z,10.53
2018-11-03T07:15:04.970Z,10.53
2018-11-03T07:16:05.378Z,10.56
2018-11-03T07:17:04.928Z,10.47
2018-11-03T07:18:04.689Z,10.47
2018-11-03T07:19:04.932Z,10.42
2018-11-03T07:20:04.931Z,10.47
2018-11-03T07:21:04.637Z,10.47
2018-11-03T07:22:04.925Z,10.56
2018-11-03T07:23:04.871Z,10.56
2018-11-03T07:24:04.895Z,10.63
2018-11-03T07:25:04.593Z,10.71
2018-11-03T07:26:04.626Z,10.68
2018-11-03T07:27:04.585Z,10.89
2018-11-03T07:28:04.594Z,10.89
2018-11-03T07:29:04.868Z,10.96
2018-11-03T07:30:04.816Z,10.99
2018-11-03T07:31:04.568Z,10.97
2018-11-03T07:32:04.902Z,10.96
2018-11-03T07:33:04.812Z,10.99
2018-11-03T07:34:04.521Z,10.94
2018-11-03T07:35:04.773Z,11.07
2018-11-03T07:36:04.235Z,10.97
2018-11-03T07:37:04.526Z,11.04
2018-11-03T07:38:04.482Z,11.1
2018-11-03T07:39:04.754Z,11.14
2018-11-03T07:40:04.487Z,11.25
2018-11-03T07:41:04.894Z,11.36
2018-11-03T07:42:04.801Z,11.35
2018-11-03T07:43:04.711Z,11.4
2018-11-03T07:44:04.468Z,11.43
2018-11-03T07:45:05.004Z,11.46
2018-11-03T07:46:04.404Z,11.46
2018-11-03T07:47:04.657Z,11.52
2018-11-03T07:48:04.184Z,11.62
2018-11-03T07:49:04.429Z,11.67
2018-11-03T07:50:04.117Z,11.75
2018-11-03T07:51:04.627Z,11.79
2018-11-03T07:52:04.352Z,11.83
2018-11-03T07:53:04.370Z,11.88
2018-11-03T07:54:04.492Z,11.83
2018-11-03T07:55:04.095Z,11.95
2018-11-03T07:56:04.331Z,12.02
2018-11-03T07:57:04.607Z,12.14
2018-11-03T07:58:04.578Z,12.07
2018-11-03T07:59:04.297Z,12.02
2018-11-03T08:00:04.286Z,12.01
2018-11-03T08:01:04.297Z,12.04
2018-11-03T08:02:04.561Z,12.01
2018-11-03T08:03:04.264Z,11.96
2018-11-03T08:04:04.462Z,11.99
2018-11-03T08:05:04.031Z,11.98
2018-11-03T08:06:04.237Z,11.83
2018-11-03T08:07:04.232Z,11.86
2018-11-03T08:08:04.480Z,11.91
2018-11-03T08:09:04.837Z,12.04
2018-11-03T08:10:04.200Z,11.95
2018-11-03T08:11:04.480Z,12.01
2018-11-03T08:12:04.447Z,11.91
2018-11-03T08:13:04.466Z,11.91
2018-11-03T08:14:04.697Z,11.86
2018-11-03T08:15:04.166Z,11.83
2018-11-03T08:16:04.405Z,11.99
2018-11-03T08:17:04.162Z,12.13
2018-11-03T08:18:04.150Z,12.07
2018-11-03T08:19:04.167Z,12.14
2018-11-03T08:20:04.111Z,12.14
2018-11-03T08:21:04.357Z,12.09
2018-11-03T08:22:04.438Z,12.23
2018-11-03T08:23:04.374Z,12.24
2018-11-03T08:24:05.099Z,12.2
2018-11-03T08:25:04.336Z,12.14
2018-11-03T08:26:04.361Z,12.2
2018-11-03T08:27:04.383Z,12.17
2018-11-03T08:28:04.341Z,12.29
2018-11-03T08:29:04.036Z,12.38
2018-11-03T08:30:04.409Z,12.46
2018-11-03T08:31:04.321Z,12.47
2018-11-03T08:32:04.019Z,12.56
2018-11-03T08:33:04.298Z,12.62
2018-11-03T08:34:04.561Z,12.68
2018-11-03T08:35:04.003Z,12.72
2018-11-03T08:36:03.986Z,12.75
2018-11-03T08:37:04.237Z,12.75
2018-11-03T08:38:04.022Z,12.93
2018-11-03T08:39:04.240Z,12.97
2018-11-03T08:40:04.284Z,13
2018-11-03T08:41:04.221Z,13.01
2018-11-03T08:42:04.287Z,13.15
2018-11-03T08:43:03.943Z,13.2
2018-11-03T08:44:04.677Z,13.2
2018-11-03T08:45:04.178Z,13.28
2018-11-03T08:46:03.935Z,13.39
2018-11-03T08:47:03.910Z,13.42
2018-11-03T08:48:04.419Z,13.57
2018-11-03T08:49:04.375Z,13.55
2018-11-03T08:50:04.140Z,13.66
2018-11-03T08:51:03.882Z,13.77
2018-11-03T08:52:03.986Z,13.77
2018-11-03T08:53:04.185Z,13.84
2018-11-03T08:54:04.176Z,13.87
2018-11-03T08:55:04.118Z,13.92
2018-11-03T08:56:03.862Z,13.95
2018-11-03T08:57:04.088Z,13.85
2018-11-03T08:58:03.845Z,13.92
2018-11-03T08:59:04.076Z,13.92
2018-11-03T09:00:04.080Z,13.84
2018-11-03T09:01:04.059Z,14.1
2018-11-03T09:02:04.104Z,13.99
2018-11-03T09:03:04.063Z,13.97
2018-11-03T09:04:03.916Z,14.07
2018-11-03T09:05:04.356Z,14.18
2018-11-03T09:06:03.769Z,14.22
2018-11-03T09:07:04.104Z,14.32
2018-11-03T09:08:03.778Z,14.35
2018-11-03T09:09:04.038Z,14.37
2018-11-03T09:10:03.740Z,14.35
2018-11-03T09:11:04.023Z,14.29
2018-11-03T09:12:03.986Z,14.28
2018-11-03T09:13:03.793Z,14.4
2018-11-03T09:14:03.978Z,14.46
2018-11-03T09:15:04.251Z,14.55
2018-11-03T09:16:03.701Z,14.54
2018-11-03T09:17:03.984Z,14.58
2018-11-03T09:18:03.943Z,14.62
2018-11-03T09:19:03.699Z,14.69
2018-11-03T09:20:03.415Z,14.62
2018-11-03T09:21:03.692Z,14.51
2018-11-03T09:22:03.940Z,14.6
2018-11-03T09:23:03.671Z,14.51
2018-11-03T09:24:03.933Z,14.57
2018-11-03T09:25:04.540Z,14.6
2018-11-03T09:26:03.979Z,14.57
2018-11-03T09:27:03.894Z,14.72
2018-11-03T09:28:03.881Z,14.73
2018-11-03T09:29:03.646Z,14.8
2018-11-03T09:30:03.615Z,14.91
2018-11-03T09:31:03.900Z,14.83
2018-11-03T09:32:03.979Z,14.94
2018-11-03T09:33:03.884Z,14.98
2018-11-03T09:34:03.838Z,14.99
2018-11-03T09:35:04.234Z,14.91
2018-11-03T09:36:03.837Z,14.99
2018-11-03T09:37:03.856Z,15.02
2018-11-03T09:38:03.322Z,15.06
2018-11-03T09:39:04.176Z,15.16
2018-11-03T09:40:03.548Z,15.17
2018-11-03T09:41:03.803Z,15.25
2018-11-03T09:42:03.562Z,15.32
2018-11-03T09:43:03.665Z,15.36
2018-11-03T09:44:03.833Z,15.49
2018-11-03T09:45:03.917Z,15.38
2018-11-03T09:46:03.551Z,15.38
2018-11-03T09:47:03.520Z,15.47
2018-11-03T09:48:03.758Z,15.46
2018-11-03T09:49:03.554Z,15.44
2018-11-03T09:50:03.748Z,15.39
2018-11-03T09:51:04.131Z,15.49
2018-11-03T09:52:03.739Z,15.43
2018-11-03T09:53:03.763Z,15.44
2018-11-03T09:54:03.515Z,15.39
2018-11-03T09:55:03.935Z,15.49
2018-11-03T09:56:03.452Z,15.44
2018-11-03T09:57:03.711Z,15.43
2018-11-03T09:58:03.735Z,15.49
2018-11-03T09:59:03.456Z,15.35
2018-11-03T10:00:03.700Z,15.39
2018-11-03T10:01:03.733Z,15.46
2018-11-03T10:02:03.690Z,15.34
2018-11-03T10:03:03.713Z,15.36
2018-11-03T10:04:03.666Z,15.21
2018-11-03T10:05:03.584Z,15.03
2018-11-03T10:06:03.397Z,15.09
2018-11-03T10:07:03.671Z,15.09
2018-11-03T10:08:03.659Z,15.11
2018-11-03T10:09:03.676Z,15.17
2018-11-03T10:10:03.411Z,15.21
2018-11-03T10:11:03.661Z,15.23
2018-11-03T10:12:03.623Z,15.36
2018-11-03T10:13:03.381Z,15.36
2018-11-03T10:14:03.685Z,15.29
2018-11-03T10:15:03.615Z,15.35
2018-11-03T10:16:03.761Z,15.34
2018-11-03T10:17:03.620Z,15.35
2018-11-03T10:18:03.594Z,15.32
2018-11-03T10:19:03.360Z,15.29
2018-11-03T10:20:03.569Z,15.28
2018-11-03T10:21:03.602Z,15.21
2018-11-03T10:22:03.781Z,15.17
2018-11-03T10:23:03.453Z,15.09
2018-11-03T10:24:03.293Z,15.16
2018-11-03T10:25:03.625Z,15.21
2018-11-03T10:26:03.513Z,15.2
2018-11-03T10:27:03.290Z,15.13
2018-11-03T10:28:03.548Z,15.16
2018-11-03T10:29:03.591Z,15.03
2018-11-03T10:30:03.279Z,15.06
2018-11-03T10:31:03.300Z,15.17
2018-11-03T10:32:03.532Z,15.21
2018-11-03T10:33:03.237Z,15.29
2018-11-03T10:34:03.269Z,15.39
2018-11-03T10:35:03.229Z,15.47
2018-11-03T10:36:03.814Z,15.43
2018-11-03T10:37:03.217Z,15.54
2018-11-03T10:38:03.507Z,15.53
2018-11-03T10:39:03.476Z,15.57
2018-11-03T10:40:03.454Z,15.65
2018-11-03T10:41:03.488Z,15.75
2018-11-03T10:42:03.478Z,15.82
2018-11-03T10:43:03.460Z,15.89
2018-11-03T10:44:03.434Z,15.97
2018-11-03T10:45:03.430Z,16.08
2018-11-03T10:46:03.394Z,16
2018-11-03T10:47:03.439Z,15.97
2018-11-03T10:48:03.445Z,16.01
2018-11-03T10:49:03.404Z,16
2018-11-03T10:50:03.461Z,15.93
2018-11-03T10:51:03.396Z,15.8
2018-11-03T10:52:03.451Z,15.67
2018-11-03T10:53:03.125Z,15.53
2018-11-03T10:54:03.148Z,15.43
2018-11-03T10:55:03.393Z,15.29
2018-11-03T10:56:03.871Z,15.27
2018-11-03T10:57:03.359Z,15.28
2018-11-03T10:58:03.363Z,15.27
2018-11-03T10:59:03.398Z,15.16
2018-11-03T11:00:03.368Z,15.07
2018-11-03T11:01:03.380Z,14.96
2018-11-03T11:02:03.375Z,14.83
2018-11-03T11:03:03.122Z,14.77
2018-11-03T11:04:03.091Z,14.78
2018-11-03T11:05:03.352Z,14.68
2018-11-03T11:06:03.594Z,14.68
2018-11-03T11:07:03.046Z,14.57
2018-11-03T11:08:03.342Z,14.55
2018-11-03T11:09:03.331Z,14.45
2018-11-03T11:10:03.058Z,14.43
2018-11-03T11:11:03.295Z,14.35
2018-11-03T11:12:03.044Z,14.36
2018-11-03T11:13:03.268Z,14.36
2018-11-03T11:14:03.553Z,14.21
2018-11-03T11:15:03.275Z,14.24
2018-11-03T11:16:03.951Z,14.37
2018-11-03T11:17:02.848Z,14.39
2018-11-03T11:18:02.987Z,14.46
2018-11-03T11:19:02.990Z,14.51
2018-11-03T11:20:03.235Z,14.58
2018-11-03T11:21:03.015Z,14.47
2018-11-03T11:22:02.958Z,14.45
2018-11-03T11:23:03.264Z,14.33
2018-11-03T11:24:03.225Z,14.25
2018-11-03T11:25:04.203Z,14.39
2018-11-03T11:26:03.076Z,14.27
2018-11-03T11:27:03.514Z,14.33
2018-11-03T11:28:03.184Z,14.28
2018-11-03T11:29:03.200Z,14.35
2018-11-03T11:30:03.170Z,14.27
2018-11-03T11:31:02.908Z,14.22
2018-11-03T11:32:03.183Z,14.33
2018-11-03T11:33:03.217Z,14.35
2018-11-03T11:34:03.152Z,14.2
2018-11-03T11:35:02.924Z,14.25
2018-11-03T11:36:02.869Z,14.28
2018-11-03T11:37:03.365Z,14.2
2018-11-03T11:38:03.119Z,14.14
2018-11-03T11:39:03.144Z,14.12
2018-11-03T11:40:02.853Z,14.07
2018-11-03T11:41:03.131Z,14.03
2018-11-03T11:42:02.839Z,14.15
2018-11-03T11:43:03.483Z,14.09
2018-11-03T11:44:03.111Z,14.14
2018-11-03T11:45:02.564Z,14.09
2018-11-03T11:46:02.818Z,14.09
2018-11-03T11:47:03.320Z,14.07
2018-11-03T11:48:02.821Z,14.17
2018-11-03T11:49:03.082Z,14.06
2018-11-03T11:50:02.803Z,14.18
2018-11-03T11:51:03.044Z,14.21
2018-11-03T11:52:03.024Z,14.21
2018-11-03T11:53:02.802Z,14.24
2018-11-03T11:54:02.762Z,14.27
2018-11-03T11:55:03.598Z,14.33
2018-11-03T11:56:03.031Z,14.24
2018-11-03T11:57:03.036Z,14.4
2018-11-03T11:58:03.070Z,14.45
2018-11-03T11:59:02.995Z,14.42
2018-11-03T12:00:03.007Z,14.54
2018-11-03T12:01:02.735Z,14.54
2018-11-03T12:02:02.979Z,14.62
2018-11-03T12:03:02.716Z,14.65
2018-11-03T12:04:02.982Z,14.78
2018-11-03T12:05:02.712Z,14.84
2018-11-03T12:06:02.896Z,14.88
2018-11-03T12:07:02.970Z,14.84
2018-11-03T12:08:02.986Z,14.88
2018-11-03T12:09:02.962Z,14.86
2018-11-03T12:10:03.083Z,14.81
2018-11-03T12:11:02.670Z,14.86
2018-11-03T12:12:02.914Z,14.83
2018-11-03T12:13:02.952Z,14.84
2018-11-03T12:14:02.894Z,14.94
2018-11-03T12:15:02.896Z,14.88
2018-11-03T12:16:03.453Z,14.92
2018-11-03T12:17:02.899Z,14.91
2018-11-03T12:18:02.889Z,14.94
2018-11-03T12:19:02.922Z,15.03
2018-11-03T12:20:02.594Z,14.99
2018-11-03T12:21:02.880Z,15.06
2018-11-03T12:22:02.584Z,15.1
2018-11-03T12:23:02.852Z,14.92
2018-11-03T12:24:02.822Z,14.94
2018-11-03T12:25:02.876Z,14.86
2018-11-03T12:26:03.445Z,14.84
2018-11-03T12:27:02.579Z,14.81
2018-11-03T12:28:02.543Z,14.88
2018-11-03T12:29:02.834Z,14.89
2018-11-03T12:30:02.540Z,14.92
2018-11-03T12:31:02.809Z,14.98
2018-11-03T12:32:02.805Z,14.91
2018-11-03T12:33:02.810Z,14.95
2018-11-03T12:34:02.811Z,14.92
2018-11-03T12:35:02.520Z,14.84
2018-11-03T12:36:02.711Z,14.86
2018-11-03T12:37:02.751Z,14.86
2018-11-03T12:38:02.784Z,14.81
2018-11-03T12:39:02.541Z,14.62
2018-11-03T12:40:02.771Z,14.6
2018-11-03T12:41:03.502Z,14.64
2018-11-03T12:42:02.762Z,14.54
2018-11-03T12:43:02.706Z,14.55
2018-11-03T12:44:02.732Z,14.64
2018-11-03T12:45:02.437Z,14.57
2018-11-03T12:46:02.727Z,14.6
2018-11-03T12:47:02.707Z,14.58
2018-11-03T12:48:02.597Z,14.57
2018-11-03T12:49:02.499Z,14.52
2018-11-03T12:50:02.716Z,14.45
2018-11-03T12:51:02.682Z,14.4
2018-11-03T12:52:02.684Z,14.22
2018-11-03T12:53:02.388Z,14.28
2018-11-03T12:54:02.421Z,14.27
2018-11-03T12:55:02.669Z,14.27
2018-11-03T12:56:03.094Z,14.25
2018-11-03T12:57:02.383Z,14.25
2018-11-03T12:58:02.646Z,14.36
2018-11-03T12:59:02.751Z,14.33
2018-11-03T13:00:02.370Z,14.29
2018-11-03T13:01:02.603Z,14.32
2018-11-03T13:02:02.365Z,14.39
2018-11-03T13:03:02.335Z,14.39
2018-11-03T13:04:02.351Z,14.47
2018-11-03T13:05:02.780Z,14.6
2018-11-03T13:06:02.847Z,14.54
2018-11-03T13:07:02.572Z,14.65